createdAt,value
2018-09-04T00:00:13.580Z,0
2018-09-04T00:00:53.997Z,0
2018-09-04T00:01:34.418Z,0
2018-09-04T00:02:14.823Z,0
2018-09-04T00:02:55.226Z,0
2018-09-04T00:03:35.649Z,0
2018-09-04T00:04:16.034Z,0
2018-09-04T00:04:56.466Z,0
2018-09-04T00:05:36.882Z,0
2018-09-04T00:06:17.300Z,0
2018-09-04T00:06:57.706Z,0
2018-09-04T00:07:38.093Z,0
2018-09-04T00:08:18.508Z,0
2018-09-04T00:08:58.891Z,0
2018-09-04T00:09:39.292Z,0
2018-09-04T00:10:19.697Z,0
2018-09-04T00:11:00.099Z,0
2018-09-04T00:11:40.503Z,0
2018-09-04T00:12:20.969Z,0
2018-09-04T00:13:01.297Z,0
2018-09-04T00:13:41.707Z,0
2018-09-04T00:14:22.160Z,0
2018-09-04T00:15:02.574Z,0
2018-09-04T00:15:42.950Z,0
2018-09-04T00:16:23.390Z,0
2018-09-04T00:17:03.786Z,0
2018-09-04T00:17:44.188Z,0
2018-09-04T00:18:24.588Z,0
2018-09-04T00:19:05.011Z,0
2018-09-04T00:19:45.392Z,0
2018-09-04T00:20:25.837Z,0
2018-09-04T00:21:06.218Z,0
2018-09-04T00:23:39.361Z,0
2018-09-04T00:24:19.591Z,0
2018-09-04T00:26:47.523Z,0
2018-09-04T00:27:27.650Z,0
2018-09-04T00:28:08.100Z,0
2018-09-04T00:28:48.462Z,0
2018-09-04T00:31:01.073Z,0
2018-09-04T00:31:41.431Z,0
2018-09-04T00:32:21.877Z,0
2018-09-04T00:33:02.250Z,0
2018-09-04T00:33:42.667Z,0
2018-09-04T00:34:23.106Z,0
2018-09-04T00:35:03.464Z,0
2018-09-04T00:37:31.759Z,0
2018-09-04T00:38:11.769Z,0
2018-09-04T00:38:52.166Z,0
2018-09-04T00:39:32.588Z,0
2018-09-04T00:40:13.003Z,0
2018-09-04T00:40:53.424Z,0
2018-09-04T00:41:33.818Z,0
2018-09-04T00:42:14.269Z,0
2018-09-04T00:42:54.557Z,0
2018-09-04T00:43:35.159Z,0
2018-09-04T00:44:15.428Z,0
2018-09-04T00:44:55.811Z,0
2018-09-04T00:45:36.279Z,0
2018-09-04T00:46:16.672Z,0
2018-09-04T00:46:57.001Z,0
2018-09-04T00:47:37.486Z,0
2018-09-04T00:48:17.861Z,0
2018-09-04T00:48:58.275Z,0
2018-09-04T00:49:38.699Z,0
2018-09-04T00:50:19.133Z,0
2018-09-04T00:50:59.504Z,0
2018-09-04T00:51:39.883Z,0
2018-09-04T00:52:20.358Z,0
2018-09-04T00:53:00.742Z,0
2018-09-04T00:53:41.203Z,0
2018-09-04T00:54:21.556Z,0
2018-09-04T00:55:02.009Z,0
2018-09-04T00:55:42.385Z,0
2018-09-04T00:56:22.870Z,0
2018-09-04T00:57:03.129Z,0
2018-09-04T00:57:43.604Z,0
2018-09-04T00:58:24.013Z,0
2018-09-04T00:59:04.374Z,0
2018-09-04T00:59:44.842Z,0
2018-09-04T01:00:25.277Z,0
2018-09-04T01:01:05.694Z,0
2018-09-04T01:01:46.030Z,0
2018-09-04T01:02:26.406Z,0
2018-09-04T01:03:06.849Z,0
2018-09-04T01:03:47.314Z,0
2018-09-04T01:04:27.722Z,0
2018-09-04T01:05:08.321Z,0
2018-09-04T01:05:48.768Z,0
2018-09-04T01:06:29.174Z,0
2018-09-04T01:07:09.578Z,0
2018-09-04T01:07:50.106Z,0
2018-09-04T01:08:30.408Z,0
2018-09-04T01:09:10.776Z,0
2018-09-04T01:09:51.786Z,0
2018-09-04T01:10:31.952Z,0
2018-09-04T01:11:12.392Z,0
2018-09-04T01:11:52.983Z,0
2018-09-04T01:12:33.261Z,0
2018-09-04T01:13:13.713Z,0
2018-09-04T01:13:54.075Z,0
2018-09-04T01:14:34.427Z,0
2018-09-04T01:15:14.849Z,0
2018-09-04T01:15:55.295Z,0
2018-09-04T01:16:35.682Z,0
2018-09-04T01:17:16.106Z,0
2018-09-04T01:17:56.618Z,0
2018-09-04T01:18:36.950Z,0
2018-09-04T01:19:17.400Z,0
2018-09-04T01:19:57.873Z,0
2018-09-04T01:20:38.422Z,0
2018-09-04T01:21:19.023Z,0
2018-09-04T01:21:59.413Z,0
2018-09-04T01:22:42.006Z,0
2018-09-04T01:23:20.999Z,0
2018-09-04T01:24:01.641Z,0
2018-09-04T01:24:41.920Z,0
2018-09-04T01:25:22.398Z,0
2018-09-04T01:26:02.754Z,0
2018-09-04T01:26:43.177Z,0
2018-09-04T01:27:23.575Z,0
2018-09-04T01:28:03.977Z,0
2018-09-04T01:28:44.335Z,0
2018-09-04T01:29:24.778Z,0
2018-09-04T01:30:05.359Z,0
2018-09-04T01:30:45.600Z,0
2018-09-04T01:31:26.099Z,0
2018-09-04T01:32:06.395Z,0
2018-09-04T01:32:46.892Z,0
2018-09-04T01:33:27.287Z,0
2018-09-04T01:34:07.713Z,0
2018-09-04T01:34:48.160Z,0
2018-09-04T01:35:28.506Z,0
2018-09-04T01:36:08.974Z,0
2018-09-04T01:36:49.305Z,0
2018-09-04T01:37:29.718Z,0
2018-09-04T01:38:10.096Z,0
2018-09-04T01:38:50.545Z,0
2018-09-04T01:39:30.952Z,0
2018-09-04T01:40:11.350Z,0
2018-09-04T01:40:51.801Z,0
2018-09-04T01:41:32.214Z,0
2018-09-04T01:42:12.627Z,0
2018-09-04T01:42:53.116Z,0
2018-09-04T01:43:33.469Z,0
2018-09-04T01:44:13.835Z,0
2018-09-04T01:44:54.330Z,0
2018-09-04T01:45:34.730Z,0
2018-09-04T01:48:04.122Z,0
2018-09-04T01:48:43.881Z,0
2018-09-04T01:49:24.234Z,0
2018-09-04T01:50:04.668Z,0
2018-09-04T01:50:45.086Z,0
2018-09-04T01:51:25.563Z,0
2018-09-04T01:52:05.911Z,0
2018-09-04T01:52:46.420Z,0
2018-09-04T01:53:26.784Z,0
2018-09-04T01:54:07.156Z,0
2018-09-04T01:54:47.672Z,0
2018-09-04T01:55:28.012Z,0
2018-09-04T01:56:08.488Z,0
2018-09-04T01:56:48.893Z,0
2018-09-04T01:57:29.256Z,0
2018-09-04T01:58:09.671Z,0
2018-09-04T01:58:50.022Z,0
2018-09-04T01:59:30.443Z,0
2018-09-04T02:00:10.879Z,0
2018-09-04T02:00:51.339Z,0
2018-09-04T02:01:31.670Z,0
2018-09-04T02:02:12.087Z,0
2018-09-04T02:02:52.447Z,0
2018-09-04T02:03:32.893Z,0
2018-09-04T02:04:13.259Z,0
2018-09-04T02:04:53.682Z,0
2018-09-04T02:05:34.147Z,0
2018-09-04T02:06:14.519Z,0
2018-09-04T02:06:55.039Z,0
2018-09-04T02:07:35.486Z,0
2018-09-04T02:08:15.845Z,0
2018-09-04T02:08:56.355Z,0
2018-09-04T02:09:36.702Z,0
2018-09-04T02:10:17.128Z,0
2018-09-04T02:10:57.447Z,0
2018-09-04T02:11:37.903Z,0
2018-09-04T02:12:18.286Z,0
2018-09-04T02:12:58.729Z,0
2018-09-04T02:13:39.126Z,0
2018-09-04T02:14:19.552Z,0
2018-09-04T02:15:00.049Z,0
2018-09-04T02:15:40.441Z,0
2018-09-04T02:16:20.836Z,0
2018-09-04T02:17:01.297Z,0
2018-09-04T02:17:41.664Z,0
2018-09-04T02:18:22.113Z,0
2018-09-04T02:19:02.500Z,0
2018-09-04T02:19:42.982Z,0
2018-09-04T02:20:23.344Z,0
2018-09-04T02:21:03.706Z,0
2018-09-04T02:21:44.166Z,0
2018-09-04T02:22:24.543Z,0
2018-09-04T02:23:05.055Z,0
2018-09-04T02:23:45.460Z,0
2018-09-04T02:24:25.888Z,0
2018-09-04T02:25:06.319Z,0
2018-09-04T02:25:46.674Z,0
2018-09-04T02:26:27.054Z,0
2018-09-04T02:27:07.476Z,0
2018-09-04T02:27:47.850Z,0
2018-09-04T02:28:28.278Z,0
2018-09-04T02:29:08.704Z,0
2018-09-04T02:29:49.098Z,0
2018-09-04T02:30:29.565Z,0
2018-09-04T02:31:09.908Z,0
2018-09-04T02:31:50.364Z,0
2018-09-04T02:32:30.724Z,0
2018-09-04T02:33:11.274Z,0
2018-09-04T02:33:51.543Z,0
2018-09-04T02:34:31.985Z,0
2018-09-04T02:35:12.338Z,0
2018-09-04T02:35:52.764Z,0
2018-09-04T02:36:33.178Z,0
2018-09-04T02:37:13.519Z,0
2018-09-04T02:37:53.933Z,0
2018-09-04T02:38:34.403Z,0
2018-09-04T02:39:14.760Z,0
2018-09-04T02:39:55.176Z,0
2018-09-04T02:40:35.616Z,0
2018-09-04T02:41:16.039Z,0
2018-09-04T02:41:56.355Z,0
2018-09-04T02:42:36.766Z,0
2018-09-04T02:43:17.192Z,0
2018-09-04T02:43:57.531Z,0
2018-09-04T02:44:37.934Z,0
2018-09-04T02:45:18.358Z,0
2018-09-04T02:45:58.838Z,0
2018-09-04T02:46:39.172Z,0
2018-09-04T02:47:19.572Z,0
2018-09-04T02:47:59.965Z,0
2018-09-04T02:48:40.383Z,0
2018-09-04T02:49:20.820Z,0
2018-09-04T02:50:01.290Z,0
2018-09-04T02:50:41.641Z,0
2018-09-04T02:51:22.057Z,0
2018-09-04T02:52:02.427Z,0
2018-09-04T02:52:42.808Z,0
2018-09-04T02:54:55.540Z,0
2018-09-04T02:55:35.961Z,0
2018-09-04T02:56:16.306Z,0
2018-09-04T02:58:44.442Z,0
2018-09-04T02:59:24.716Z,0
2018-09-04T03:00:05.132Z,0
2018-09-04T03:00:45.549Z,0
2018-09-04T03:01:25.925Z,0
2018-09-04T03:02:06.346Z,0
2018-09-04T03:02:46.757Z,0
2018-09-04T03:03:27.101Z,0
2018-09-04T03:04:07.515Z,0
2018-09-04T03:04:47.937Z,0
2018-09-04T03:05:28.349Z,0
2018-09-04T03:06:08.730Z,0
2018-09-04T03:06:49.124Z,0
2018-09-04T03:07:29.542Z,0
2018-09-04T03:08:09.973Z,0
2018-09-04T03:08:50.399Z,0
2018-09-04T03:09:30.768Z,0
2018-09-04T03:10:11.179Z,0
2018-09-04T03:10:51.631Z,0
2018-09-04T03:11:32.022Z,0
2018-09-04T03:12:12.418Z,0
2018-09-04T03:12:52.815Z,0
2018-09-04T03:13:33.318Z,0
2018-09-04T03:14:13.652Z,0
2018-09-04T03:14:54.040Z,0
2018-09-04T03:15:34.480Z,0
2018-09-04T03:16:14.885Z,0
2018-09-04T03:16:55.291Z,0
2018-09-04T03:17:35.687Z,0
2018-09-04T03:19:53.432Z,0
2018-09-04T03:22:26.308Z,0
2018-09-04T03:23:06.568Z,0
2018-09-04T03:25:35.763Z,0
2018-09-04T03:26:28.072Z,0
2018-09-04T03:27:20.220Z,0
2018-09-04T03:28:12.800Z,0
2018-09-04T03:29:05.286Z,0
2018-09-04T03:29:57.778Z,0
2018-09-04T03:30:49.680Z,0
2018-09-04T03:31:43.339Z,0
2018-09-04T03:32:38.162Z,0
2018-09-04T03:33:30.539Z,0
2018-09-04T03:34:23.626Z,0
2018-09-04T03:35:20.333Z,0
2018-09-04T03:36:12.754Z,0
2018-09-04T03:37:04.943Z,0
2018-09-04T03:37:57.287Z,0
2018-09-04T03:38:49.394Z,0
2018-09-04T03:39:41.569Z,0
2018-09-04T03:40:33.618Z,0
2018-09-04T03:41:25.951Z,0
2018-09-04T03:42:18.372Z,0
2018-09-04T03:43:10.469Z,0
2018-09-04T03:44:02.167Z,0
2018-09-04T03:44:54.619Z,0
2018-09-04T03:45:46.725Z,0
2018-09-04T03:46:39.584Z,0
2018-09-04T03:47:31.920Z,0
2018-09-04T03:48:24.254Z,0
2018-09-04T03:49:16.213Z,0
2018-09-04T03:50:08.232Z,0
2018-09-04T03:51:00.407Z,0
2018-09-04T03:51:52.720Z,0
2018-09-04T03:52:40.603Z,0
2018-09-04T03:53:20.953Z,0
2018-09-04T03:54:01.430Z,0
2018-09-04T03:54:41.807Z,0
2018-09-04T03:55:22.177Z,0
2018-09-04T03:56:02.595Z,0
2018-09-04T03:56:43.025Z,0
2018-09-04T03:57:23.440Z,0
2018-09-04T03:58:03.774Z,0
2018-09-04T03:58:44.338Z,0
2018-09-04T03:59:24.733Z,0
2018-09-04T04:00:05.017Z,0
2018-09-04T04:00:45.485Z,0
2018-09-04T04:01:26.067Z,0
2018-09-04T04:02:06.380Z,0
2018-09-04T04:02:46.811Z,0
2018-09-04T04:03:27.156Z,0
2018-09-04T04:04:07.657Z,0
2018-09-04T04:04:48.090Z,0
2018-09-04T04:05:28.464Z,0
2018-09-04T04:06:45.471Z,0
2018-09-04T04:07:25.729Z,0
2018-09-04T04:08:13.369Z,0
2018-09-04T04:13:44.302Z,0
2018-09-04T04:14:36.638Z,0
2018-09-04T04:15:29.191Z,0
2018-09-04T04:16:21.659Z,0
2018-09-04T04:17:13.987Z,0
2018-09-04T04:18:06.598Z,0
2018-09-04T04:19:00.055Z,0
2018-09-04T04:19:52.131Z,0
2018-09-04T04:20:44.217Z,0
2018-09-04T04:21:36.768Z,0
2018-09-04T04:22:28.897Z,0
2018-09-04T04:23:21.399Z,0
2018-09-04T04:24:13.731Z,0
2018-09-04T04:25:06.805Z,0
2018-09-04T04:25:59.883Z,4
2018-09-04T04:26:52.317Z,0
2018-09-04T04:27:44.852Z,0
2018-09-04T04:28:36.824Z,4
2018-09-04T05:06:28.153Z,92
2018-09-04T05:07:08.468Z,96
2018-09-04T05:07:48.896Z,104
2018-09-04T05:08:29.269Z,112
2018-09-04T05:09:09.667Z,128
2018-09-04T05:09:50.070Z,140
2018-09-04T05:10:30.509Z,160
2018-09-04T05:11:10.970Z,188
2018-09-04T05:11:51.295Z,216
2018-09-04T05:12:31.984Z,252
2018-09-04T05:13:12.343Z,280
2018-09-04T05:13:52.691Z,292
2018-09-04T05:14:33.152Z,296
2018-09-04T05:15:13.560Z,292
2018-09-04T05:15:53.901Z,284
2018-09-04T05:16:34.302Z,272
2018-09-04T05:17:14.729Z,268
2018-09-04T05:17:55.183Z,264
2018-09-04T05:18:35.575Z,264
2018-09-04T05:19:15.949Z,264
2018-09-04T05:19:56.407Z,260
2018-09-04T05:20:36.825Z,256
2018-09-04T05:21:17.226Z,248
2018-09-04T05:21:57.679Z,248
2018-09-04T05:22:38.776Z,244
2018-09-04T05:23:19.203Z,252
2018-09-04T05:23:59.690Z,252
2018-09-04T05:24:43.208Z,252
2018-09-04T05:25:24.982Z,256
2018-09-04T05:26:07.483Z,260
2018-09-04T05:26:48.522Z,268
2018-09-04T05:27:35.968Z,284
2018-09-04T05:28:16.371Z,308
2018-09-04T05:28:57.248Z,328
2018-09-04T05:29:40.165Z,352
2018-09-04T05:30:22.568Z,372
2018-09-04T05:31:03.096Z,392
2018-09-04T05:31:44.711Z,404
2018-09-04T05:32:26.821Z,416
2018-09-04T05:33:08.498Z,432
2018-09-04T05:36:00.919Z,484
2018-09-04T05:37:01.631Z,468
2018-09-04T05:41:25.208Z,408
2018-09-04T05:42:37.222Z,420
2018-09-04T05:43:54.647Z,444
2018-09-04T05:46:45.862Z,524
2018-09-04T05:49:55.810Z,648
2018-09-04T05:50:48.040Z,696
2018-09-04T05:51:40.269Z,768
2018-09-04T05:52:33.592Z,832
2018-09-04T05:53:36.678Z,900
2018-09-04T05:54:29.900Z,956
2018-09-04T05:55:22.499Z,988
2018-09-04T05:56:15.837Z,1048
2018-09-04T05:57:15.419Z,1196
2018-09-04T05:58:08.689Z,1408
2018-09-04T05:59:01.951Z,1672
2018-09-04T05:59:54.340Z,2096
2018-09-04T06:00:47.798Z,2532
2018-09-04T06:01:41.547Z,2904
2018-09-04T06:02:36.962Z,3052
2018-09-04T06:03:31.874Z,3092
2018-09-04T06:06:30.742Z,3132
2018-09-04T06:07:24.932Z,3396
2018-09-04T06:08:17.635Z,3836
2018-09-04T06:09:10.253Z,4368
2018-09-04T06:10:03.309Z,4564
2018-09-04T06:10:57.181Z,4424
2018-09-04T06:11:50.133Z,4464
2018-09-04T06:12:43.628Z,4340
2018-09-04T06:13:40.503Z,4264
2018-09-04T06:14:34.204Z,4264
2018-09-04T06:16:06.758Z,4448
2018-09-04T06:17:04.509Z,4612
2018-09-04T06:18:03.167Z,4712
2018-09-04T06:18:58.740Z,4696
2018-09-04T06:19:51.739Z,4484
2018-09-04T06:20:44.625Z,4436
2018-09-04T06:21:38.867Z,4336
2018-09-04T06:22:34.319Z,4336
2018-09-04T06:23:32.166Z,4608
2018-09-04T06:24:32.403Z,4668
2018-09-04T06:27:26.407Z,5888
2018-09-04T06:28:20.872Z,6564
2018-09-04T06:29:14.049Z,6796
2018-09-04T06:30:07.552Z,6596
2018-09-04T06:31:04.822Z,6664
2018-09-04T06:31:59.467Z,6896
2018-09-04T06:32:56.193Z,7156
2018-09-04T06:33:51.718Z,7424
2018-09-04T06:34:45.750Z,7596
2018-09-04T06:35:38.179Z,7752
2018-09-04T06:36:31.828Z,7704
2018-09-04T06:37:24.504Z,7652
2018-09-04T06:38:19.842Z,7756
2018-09-04T06:39:12.181Z,8016
2018-09-04T06:40:05.960Z,8072
2018-09-04T06:40:58.678Z,7980
2018-09-04T06:41:56.521Z,7964
2018-09-04T06:42:51.900Z,8072
2018-09-04T06:43:47.828Z,8436
2018-09-04T06:44:47.260Z,8780
2018-09-04T06:45:44.655Z,9016
2018-09-04T06:46:42.421Z,9236
2018-09-04T06:47:38.865Z,9296
2018-09-04T06:48:35.699Z,9244
2018-09-04T06:49:38.869Z,9292
2018-09-04T06:52:31.916Z,9256
2018-09-04T06:53:12.303Z,9252
2018-09-04T06:53:52.722Z,9324
2018-09-04T06:54:33.211Z,9684
2018-09-04T06:55:13.644Z,9940
2018-09-04T06:55:54.057Z,9900
2018-09-04T06:56:34.465Z,10244
2018-09-04T06:57:14.919Z,10120
2018-09-04T06:57:55.351Z,9992
2018-09-04T06:58:35.722Z,9720
2018-09-04T06:59:16.129Z,9476
2018-09-04T06:59:56.561Z,9340
2018-09-04T07:00:37.063Z,9556
2018-09-04T07:01:17.513Z,9800
2018-09-04T07:01:58.043Z,9980
2018-09-04T07:02:38.383Z,10020
2018-09-04T07:03:18.786Z,9924
2018-09-04T07:03:59.290Z,9832
2018-09-04T07:04:39.589Z,9780
2018-09-04T07:05:20.716Z,9776
2018-09-04T07:06:01.280Z,9868
2018-09-04T07:06:41.892Z,9848
2018-09-04T07:07:22.114Z,9684
2018-09-04T07:08:02.516Z,9640
2018-09-04T07:12:03.986Z,9424
2018-09-04T07:12:44.297Z,9468
2018-09-04T07:13:24.733Z,9440
2018-09-04T07:14:05.156Z,9352
2018-09-04T07:14:45.556Z,9332
2018-09-04T07:15:25.981Z,9368
2018-09-04T07:16:06.472Z,9352
2018-09-04T07:16:47.152Z,9280
2018-09-04T07:17:27.539Z,9184
2018-09-04T07:20:18.951Z,8972
2018-09-04T07:22:44.561Z,7612
2018-09-04T07:23:25.301Z,7476
2018-09-04T07:24:05.448Z,7348
2018-09-04T07:24:45.936Z,7248
2018-09-04T07:25:26.350Z,7180
2018-09-04T07:32:17.728Z,6672
2018-09-04T07:33:12.879Z,6620
2018-09-04T07:34:06.517Z,6596
2018-09-04T07:34:53.805Z,6544
2018-09-04T07:37:18.234Z,6340
2018-09-04T07:37:58.880Z,6220
2018-09-04T07:38:39.262Z,6192
2018-09-04T07:39:19.569Z,6152
2018-09-04T07:40:00.008Z,6184
2018-09-04T07:40:40.520Z,6192
2018-09-04T07:41:21.007Z,6136
2018-09-04T07:42:01.618Z,6112
2018-09-04T07:42:41.842Z,6048
2018-09-04T07:43:22.312Z,6000
2018-09-04T07:44:02.738Z,5948
2018-09-04T07:44:43.096Z,5836
2018-09-04T07:45:23.645Z,5776
2018-09-04T07:46:04.958Z,5776
2018-09-04T07:46:46.110Z,5740
2018-09-04T07:47:27.071Z,5688
2018-09-04T07:48:06.686Z,5712
2018-09-04T07:48:47.066Z,5780
2018-09-04T07:49:27.679Z,5800
2018-09-04T07:50:08.076Z,5788
2018-09-04T07:50:48.512Z,5764
2018-09-04T07:51:28.947Z,5692
2018-09-04T07:52:09.405Z,5608
2018-09-04T07:52:49.882Z,5392
2018-09-04T07:55:32.484Z,5396
2018-09-04T07:56:33.189Z,5164
2018-09-04T07:57:26.995Z,5028
2018-09-04T07:58:24.135Z,4900
2018-09-04T08:05:24.382Z,4508
2018-09-04T08:06:30.827Z,4924
2018-09-04T08:07:15.637Z,5088
2018-09-04T08:07:56.483Z,5080
2018-09-04T08:08:37.487Z,4940
2018-09-04T08:09:17.895Z,4864
2018-09-04T08:09:59.009Z,4860
2018-09-04T08:10:39.522Z,4820
2018-09-04T08:11:19.794Z,4792
2018-09-04T08:12:00.422Z,4732
2018-09-04T08:12:40.831Z,4788
2018-09-04T08:13:21.241Z,4860
2018-09-04T08:14:01.607Z,4820
2018-09-04T08:14:42.082Z,4492
2018-09-04T08:15:23.059Z,4112
2018-09-04T08:16:03.519Z,3940
2018-09-04T08:16:44.330Z,3856
2018-09-04T08:17:24.782Z,3616
2018-09-04T08:18:05.175Z,3420
2018-09-04T08:18:45.538Z,3340
2018-09-04T08:19:26.129Z,3304
2018-09-04T08:20:07.565Z,3336
2018-09-04T08:20:48.087Z,3376
2018-09-04T08:24:25.128Z,3032
2018-09-04T08:29:04.428Z,2588
2018-09-04T08:30:04.346Z,2588
2018-09-04T08:31:02.693Z,2616
2018-09-04T08:32:05.854Z,2660
2018-09-04T08:34:25.023Z,2888
2018-09-04T08:42:37.428Z,3108
2018-09-04T08:48:11.166Z,3048
2018-09-04T08:48:51.790Z,2964
2018-09-04T08:49:32.438Z,2796
2018-09-04T08:50:12.942Z,2796
2018-09-04T08:50:53.510Z,2792
2018-09-04T08:51:34.232Z,2752
2018-09-04T08:52:15.450Z,2552
2018-09-04T08:52:55.944Z,2544
2018-09-04T08:53:36.643Z,2424
2018-09-04T08:54:17.746Z,2416
2018-09-04T08:54:58.334Z,2312
2018-09-04T08:55:39.066Z,2248
2018-09-04T08:56:20.467Z,2128
2018-09-04T08:57:01.349Z,2044
2018-09-04T08:57:41.852Z,1960
2018-09-04T08:58:22.709Z,1904
2018-09-04T08:59:03.365Z,1888
2018-09-04T08:59:44.073Z,1900
2018-09-04T09:00:25.890Z,2008
2018-09-04T09:01:06.119Z,1860
2018-09-04T09:01:46.748Z,1892
2018-09-04T09:02:28.370Z,1932
2018-09-04T09:03:08.386Z,1932
2018-09-04T09:03:48.941Z,1956
2018-09-04T09:04:29.434Z,1932
2018-09-04T09:05:10.055Z,1936
2018-09-04T09:05:50.726Z,1948
2018-09-04T09:06:31.506Z,2040
2018-09-04T09:07:12.614Z,2164
2018-09-04T09:07:52.546Z,2316
2018-09-04T09:08:33.720Z,2420
2018-09-04T09:09:14.429Z,2500
2018-09-04T09:09:54.974Z,2544
2018-09-04T09:10:35.593Z,2536
2018-09-04T09:11:17.927Z,2540
2018-09-04T09:12:01.249Z,2500
2018-09-04T09:12:42.563Z,2444
2018-09-04T09:13:23.172Z,2440
2018-09-04T09:14:04.176Z,2452
2018-09-04T09:14:44.590Z,2428
2018-09-04T09:15:26.530Z,2460
2018-09-04T09:16:06.515Z,2580
2018-09-04T09:16:47.151Z,2716
2018-09-04T09:17:28.205Z,2520
2018-09-04T09:18:08.960Z,2104
2018-09-04T09:18:50.903Z,2104
2018-09-04T09:19:30.765Z,2108
2018-09-04T09:20:11.528Z,2232
2018-09-04T09:20:52.892Z,2528
2018-09-04T09:21:33.895Z,2720
2018-09-04T09:22:14.899Z,2664
2018-09-04T09:22:56.212Z,2480
2018-09-04T09:23:35.705Z,2420
2018-09-04T09:24:16.523Z,2440
2018-09-04T09:24:57.238Z,2324
2018-09-04T09:25:39.047Z,2260
2018-09-04T09:26:20.091Z,2264
2018-09-04T09:27:00.696Z,2280
2018-09-04T09:27:41.472Z,2372
2018-09-04T09:28:22.908Z,2500
2018-09-04T09:29:03.934Z,2536
2018-09-04T09:29:45.470Z,2480
2018-09-04T09:30:26.541Z,2448
2018-09-04T09:31:06.791Z,2528
2018-09-04T09:31:48.408Z,2656
2018-09-04T09:32:28.692Z,2668
2018-09-04T09:33:09.458Z,2716
2018-09-04T09:33:50.058Z,2680
2018-09-04T09:34:32.011Z,2748
2018-09-04T09:35:12.514Z,2820
2018-09-04T09:35:52.957Z,2956
2018-09-04T09:36:34.460Z,2680
2018-09-04T09:37:14.252Z,2680
2018-09-04T09:37:55.499Z,2772
2018-09-04T09:38:37.985Z,2836
2018-09-04T09:39:17.589Z,2900
2018-09-04T09:39:58.257Z,3044
2018-09-04T09:40:39.090Z,3088
2018-09-04T09:41:21.932Z,3364
2018-09-04T09:44:59.587Z,3296
2018-09-04T09:45:41.764Z,3544
2018-09-04T09:46:22.396Z,3336
2018-09-04T09:47:01.864Z,3208
2018-09-04T09:47:43.250Z,3176
2018-09-04T09:48:23.164Z,3208
2018-09-04T09:49:03.724Z,3168
2018-09-04T09:49:44.899Z,3068
2018-09-04T09:50:25.659Z,3028
2018-09-04T09:51:06.702Z,2792
2018-09-04T09:51:47.121Z,2676
2018-09-04T09:52:27.995Z,2524
2018-09-04T09:53:09.362Z,2412
2018-09-04T09:53:49.599Z,2336
2018-09-04T09:54:30.429Z,2304
2018-09-04T09:55:12.721Z,2272
2018-09-04T09:55:52.894Z,2232
2018-09-04T09:56:33.456Z,2220
2018-09-04T09:57:14.167Z,2216
2018-09-04T09:57:54.970Z,2260
2018-09-04T09:58:35.758Z,2280
2018-09-04T09:59:16.716Z,2264
2018-09-04T09:59:57.395Z,2288
2018-09-04T10:00:38.152Z,2364
2018-09-04T10:01:19.036Z,2444
2018-09-04T10:02:04.725Z,2692
2018-09-04T10:02:46.563Z,2820
2018-09-04T10:03:29.196Z,2784
2018-09-04T10:04:09.974Z,2872
2018-09-04T10:04:51.697Z,2892
2018-09-04T10:05:33.941Z,3168
2018-09-04T10:06:15.303Z,3244
2018-09-04T10:06:57.879Z,3224
2018-09-04T10:07:39.294Z,3124
2018-09-04T10:08:20.947Z,3076
2018-09-04T10:09:03.507Z,2988
2018-09-04T10:09:47.253Z,2952
2018-09-04T10:10:27.535Z,2744
2018-09-04T10:11:08.882Z,2708
2018-09-04T10:11:50.719Z,2696
2018-09-04T10:12:32.080Z,2756
2018-09-04T10:13:12.668Z,2796
2018-09-04T10:13:54.070Z,2872
2018-09-04T10:14:34.492Z,2916
2018-09-04T10:15:16.209Z,2960
2018-09-04T10:15:56.954Z,2968
2018-09-04T10:16:38.301Z,2932
2018-09-04T10:17:18.976Z,2908
2018-09-04T10:18:01.248Z,2816
2018-09-04T10:18:40.810Z,2688
2018-09-04T10:19:22.217Z,2456
2018-09-04T10:20:02.550Z,2480
2018-09-04T10:20:44.212Z,2492
2018-09-04T10:21:23.803Z,2488
2018-09-04T10:22:07.000Z,2452
2018-09-04T10:22:47.690Z,2384
2018-09-04T10:23:29.103Z,2304
2018-09-04T10:24:10.702Z,2220
2018-09-04T10:24:51.123Z,2220
2018-09-04T10:25:32.526Z,2232
2018-09-04T10:26:14.223Z,2400
2018-09-04T10:26:54.468Z,2512
2018-09-04T10:27:35.343Z,2496
2018-09-04T10:28:16.737Z,2408
2018-09-04T10:28:57.235Z,2328
2018-09-04T10:29:38.532Z,2220
2018-09-04T11:07:58.648Z,1984
2018-09-04T11:08:58.871Z,1964
2018-09-04T11:14:37.226Z,2392
2018-09-04T11:15:18.393Z,2384
2018-09-04T11:15:58.729Z,2356
2018-09-04T11:16:39.247Z,2324
2018-09-04T11:17:20.102Z,2172
2018-09-04T11:18:00.825Z,2312
2018-09-04T11:18:41.463Z,2380
2018-09-04T11:19:23.127Z,2524
2018-09-04T11:20:04.404Z,2552
2018-09-04T11:20:44.901Z,2576
2018-09-04T11:21:27.289Z,2648
2018-09-04T11:22:08.933Z,2644
2018-09-04T11:22:48.777Z,2500
2018-09-04T11:23:29.426Z,2640
2018-09-04T11:24:10.941Z,2660
2018-09-04T11:24:51.918Z,2600
2018-09-04T11:25:31.956Z,2528
2018-09-04T11:26:12.552Z,2404
2018-09-04T11:26:53.255Z,2432
2018-09-04T11:27:33.938Z,2512
2018-09-04T11:28:14.845Z,2504
2018-09-04T11:28:56.356Z,2416
2018-09-04T11:29:38.188Z,2168
2018-09-04T11:30:18.439Z,2152
2018-09-04T11:30:58.898Z,2288
2018-09-04T11:34:37.780Z,2280
2018-09-04T11:43:24.885Z,2180
2018-09-04T11:44:20.332Z,2124
2018-09-04T11:45:11.893Z,2120
2018-09-04T11:46:07.064Z,2132
2018-09-04T11:47:04.301Z,2108
2018-09-04T11:49:43.538Z,2392
2018-09-04T11:50:24.497Z,2316
2018-09-04T11:51:05.066Z,2728
2018-09-04T11:51:45.548Z,2860
2018-09-04T11:52:26.112Z,2892
2018-09-04T11:53:06.835Z,2912
2018-09-04T11:53:47.444Z,2860
2018-09-04T11:54:27.855Z,2644
2018-09-04T11:55:08.502Z,2844
2018-09-04T11:55:48.942Z,2788
2018-09-04T11:56:29.956Z,2524
2018-09-04T11:57:10.236Z,2416
2018-09-04T11:57:52.104Z,2348
2018-09-04T11:58:32.463Z,2236
2018-09-04T11:59:13.102Z,2160
2018-09-04T11:59:53.629Z,2096
2018-09-04T12:00:34.057Z,2004
2018-09-04T12:01:14.691Z,1920
2018-09-04T12:01:55.050Z,1836
2018-09-04T12:02:35.495Z,1744
2018-09-04T12:03:17.821Z,1672
2018-09-04T12:03:59.010Z,1636
2018-09-04T12:04:39.648Z,1600
2018-09-04T12:05:22.212Z,1532
2018-09-04T12:06:02.020Z,1468
2018-09-04T12:06:42.791Z,1428
2018-09-04T12:07:23.023Z,1424
2018-09-04T12:08:03.677Z,1412
2018-09-04T12:08:45.052Z,1396
2018-09-04T12:09:26.305Z,1396
2018-09-04T12:10:07.701Z,1416
2018-09-04T12:10:48.156Z,1452
2018-09-04T12:11:28.613Z,1496
2018-09-04T12:12:08.967Z,1528
2018-09-04T12:12:49.595Z,1564
2018-09-04T12:13:29.994Z,1624
2018-09-04T12:14:10.318Z,1688
2018-09-04T12:14:50.668Z,1764
2018-09-04T12:15:31.283Z,1816
2018-09-04T12:16:12.028Z,1852
2018-09-04T12:16:53.757Z,1864
2018-09-04T12:17:34.190Z,1928
2018-09-04T12:18:14.593Z,2036
2018-09-04T12:18:56.582Z,2116
2018-09-04T12:19:36.858Z,2184
2018-09-04T12:20:17.346Z,2496
2018-09-04T12:20:58.060Z,2540
2018-09-04T12:21:38.333Z,2544
2018-09-04T12:22:20.072Z,2496
2018-09-04T12:23:00.976Z,2472
2018-09-04T12:23:41.394Z,2448
2018-09-04T12:24:22.007Z,2608
2018-09-04T12:25:02.713Z,2688
2018-09-04T12:25:43.367Z,2672
2018-09-04T12:26:26.360Z,2668
2018-09-04T12:27:06.326Z,2692
2018-09-04T12:27:46.769Z,2684
2018-09-04T12:28:27.285Z,2684
2018-09-04T12:29:07.779Z,2676
2018-09-04T12:29:48.981Z,2664
2018-09-04T12:30:29.972Z,2632
2018-09-04T12:31:12.585Z,2636
2018-09-04T12:31:53.195Z,2608
2018-09-04T12:32:34.433Z,2588
2018-09-04T12:33:14.845Z,2540
2018-09-04T12:33:57.428Z,2468
2018-09-04T12:34:37.735Z,2348
2018-09-04T12:35:18.261Z,2356
2018-09-04T12:35:58.777Z,2368
2018-09-04T12:36:39.369Z,2340
2018-09-04T12:37:19.899Z,2296
2018-09-04T12:38:00.325Z,2308
2018-09-04T12:38:40.938Z,2352
2018-09-04T12:39:21.342Z,2320
2018-09-04T12:40:01.893Z,2256
2018-09-04T12:40:42.444Z,2228
2018-09-04T12:41:24.519Z,2212
2018-09-04T12:42:06.170Z,2148
2018-09-04T12:42:48.493Z,2044
2018-09-04T12:43:29.511Z,1872
2018-09-04T12:44:09.656Z,1692
2018-09-04T12:44:50.366Z,1756
2018-09-04T12:45:31.132Z,1424
2018-09-04T12:46:11.967Z,1432
2018-09-04T12:46:53.453Z,1356
2018-09-04T12:47:34.586Z,1308
2018-09-04T12:48:15.340Z,1272
2018-09-04T12:48:55.854Z,1272
2018-09-04T12:49:36.576Z,1288
2018-09-04T12:50:19.074Z,1284
2018-09-04T12:51:00.024Z,1268
2018-09-04T12:51:40.693Z,1260
2018-09-04T12:52:22.499Z,1252
2018-09-04T12:53:03.042Z,1252
2018-09-04T12:53:43.796Z,1256
2018-09-04T12:54:25.619Z,1264
2018-09-04T12:55:05.241Z,1280
2018-09-04T12:55:46.910Z,1288
2018-09-04T12:56:28.815Z,1292